AirNav   Pilot Hours Calculator
 
 729 users online  

FL98 Kelly Tractor Co Heliport
Miami, Florida, USA

GOING TO MIAMI?


FAA INFORMATION EFFECTIVE 02 JANUARY 2020

Location

FAA Identifier: FL98
Lat/Long: 25-49-35.7000N 080-20-00.5400W
25-49.595000N 080-20.009000W
25.8265833,-80.3334833
(estimated)
Elevation: 8 ft. / 2 m (estimated)
Variation: 03W (1985)
Time zone: UTC -5 (UTC -4 during Daylight Saving Time)
Zip code: 33166

Heliport Operations

Heliport use: Private use. Permission required prior to landing
Activation date: 02/1976
Control tower: no
ARTCC: MIAMI CENTER
FSS: MIAMI FLIGHT SERVICE STATION
Attendance: UNATNDD
Wind indicator: yes
Segmented circle: no

Heliport Communications

WX ASOS at MIA (3 nm SE): PHONE 305-870-0235
WX ASOS at OPF (6 nm NE): 125.9 (305-681-4063)
WX ASOS at HWO (12 nm NE): PHONE 954-983-5904
WX ASOS at TMB (12 nm SW): PHONE 305-235-1332
WX ASOS at FLL (18 nm NE): PHONE 954-359-7857

Nearby radio navigation aids

VOR radial/distance  VOR name  Freq  Var
DHPr032/1.8DOLPHIN VORTAC113.9004W
VKZr299/10.7VIRGINIA KEY VOR/DME117.1004W
FLLr217/17.4FORT LAUDERDALE VOR/DME114.4006W

Heliport Services

Runway Information

Helipad H1

Dimensions: 50 x 50 ft. / 15 x 15 m
CIRCULAR PAD WITH CROSS MRKG.
Surface: concrete, in fair condition
Operational restrictions: DEPARTURE & APCH FROM EAST & NORTH ONLY.
Latitude: 25-49.595000N
Longitude: 080-20.009000W
Elevation: 8.0 ft.
Traffic pattern: leftleft
Markings: none, in fair condition

Heliport Ownership and Management from official FAA records

Ownership: Privately-owned
Owner: KELLY TRACTOR CO
8255 NW 58TH ST
MIAMI, FL 33166
Phone 305-592-5360
Manager: L. P. KELLY, PRESIDENT
KELLY TRACTOR CO, 8255 NW 58TH ST
MIAMI, FL 33166
Phone 305-592-5360

Additional Remarks

FOR CD CTC MIAMI APCH AT 305-869-5432.

Instrument Procedures

There are no published instrument procedures at FL98.

Some nearby airports with instrument procedures:

KMIA - Miami International Airport (3 nm SE)
KOPF - Miami-Opa Locka Executive Airport (6 nm NE)
KHWO - North Perry Airport (12 nm NE)
KTMB - Miami Executive Airport (12 nm SW)
KFLL - Fort Lauderdale/Hollywood International Airport (18 nm NE)
 
Loc | Ops | Rwys | IFR | FBO | Links
Com | Nav | Svcs | Stats | Notes

Reliance Aviation
AirBoss

 
Area around FL98 (Kelly Tractor Co Heliport)
 
Road maps at: MapQuest Bing Google
 
Aerial photo
No photo
 
Sectional chart

 
Airport distance calculator
Flying to Kelly Tractor Co Heliport? Find the distance to fly.

From to FL98

Sunrise and sunset
Times for 21-Jan-2020
 Local
(UTC-5)
 Zulu
(UTC)
Morning civil twilight06:4511:45
Sunrise07:1012:10
Sunset17:5522:55
Evening civil twilight18:2023:20

Current date and time
Zulu (UTC)  21-Jan-2020 12:13:40
Local (UTC-5)  21-Jan-2020 07:13:40
 
METAR
KMIA 
3nm S 
211153Z 33007KT 10SM FEW013 FEW250 13/09 A3011 RMK AO2 SLP195 T01280094 10150 20128 53006
KOPF 
6nm NE 
211153Z 34012KT 10SM CLR 12/09 A3011 RMK AO2 SLP196 T01170094 10144 20117 53005
KHWO 
12nm NE 
211153Z 33009KT 10SM CLR 11/08 A3012 RMK AO2 SLP199 T01110083 10139 20111 53006
KTMB 
12nm SW 
211153Z AUTO 35010KT 10SM OVC009 12/11 A3011 RMK AO2 SLP194 T01170106 10133 20117 53006
KFLL 
17nm NE 
211153Z 32005KT 10SM FEW015 FEW250 11/09 A3009 RMK AO2 SLP190 T01110089 10139 20111 53006
TAF
KMIA 
3nm S 
210859Z 2109/2212 34006KT P6SM FEW250 FM211400 32011G20KT P6SM FEW050 SCT250
KOPF 
6nm NE 
210859Z 2109/2206 35008KT P6SM FEW250 FM211400 33012G21KT P6SM FEW050 SCT250
KTMB 
12nm SW 
210540Z 2106/2206 35008KT P6SM SCT250 FM211400 33012KT P6SM FEW050 SCT250
KFLL 
17nm NE 
211131Z 2112/2218 34010KT P6SM SCT250 FM211400 33012G20KT P6SM FEW050 SCT250 FM220200 35014KT P6SM FEW050 SCT250
NOTAMs
Click for the latest NOTAMs
NOTAMs are issued by the DoD/FAA and will open in a separate window not controlled by AirNav.

 

 
 

Would you like to see your business listed on this page?

 If your business provides an interesting product or service to pilots, flight crews, aircraft, or users of the Kelly Tractor Co Heliport, you should consider listing it here.  To start the listing process, click on the button below
 
Add a business
 

Other Pages about Kelly Tractor Co Heliport

Update a link
 
Copyright © AirNav, LLC. All rights reserved. Privacy Policy  Contact